Time;durP1;ratioP1;P1;durP2;ratioP2;P2;SDS_P1;SDS_P2;PMS_P1;PMS_P2;Temp;Humidity;BMP_temperature;BMP_pressure;BME280_temperature;BME280_humidity;BME280_pressure;Samples;Min_cycle;Max_cycle;Signal;HPM_P1;HPM_P2
2022/07/13 00:00:16;;;;;;;3.47;1.30;;;26.50;47.20;;;;;;4897734;29;20056;-93
2022/07/13 00:02:41;;;;;;;2.28;1.23;;;26.40;47.20;;;;;;4897705;29;20024;-93
2022/07/13 00:05:08;;;;;;;4.22;1.30;;;26.30;47.20;;;;;;4898105;29;20025;-94
2022/07/13 00:07:35;;;;;;;2.75;0.93;;;26.30;46.60;;;;;;4897593;29;20024;-93
2022/07/13 00:10:00;;;;;;;3.03;0.90;;;26.30;46.90;;;;;;4897243;29;20028;-93
2022/07/13 00:12:26;;;;;;;1.38;0.90;;;26.20;46.70;;;;;;4897422;29;20047;-93
2022/07/13 00:14:52;;;;;;;1.50;0.90;;;26.20;47.20;;;;;;4913268;29;20033;-92
2022/07/13 00:17:18;;;;;;;1.75;0.85;;;26.20;47.10;;;;;;4897635;29;20374;-92
2022/07/13 00:19:43;;;;;;;2.50;1.08;;;26.10;47.20;;;;;;4897657;29;20449;-93
2022/07/13 00:22:09;;;;;;;1.98;1.00;;;26.10;47.40;;;;;;4897559;29;20398;-93
2022/07/13 00:24:35;;;;;;;4.45;1.00;;;26.00;47.70;;;;;;4898826;29;20021;-93
2022/07/13 00:27:00;;;;;;;3.63;1.25;;;25.90;47.80;;;;;;4897392;29;20100;-93
2022/07/13 00:29:26;;;;;;;6.07;1.02;;;25.90;48.00;;;;;;4897914;29;20028;-93
2022/07/13 00:31:52;;;;;;;3.17;0.98;;;25.90;46.60;;;;;;4897354;29;20029;-93
2022/07/13 00:34:17;;;;;;;2.45;1.00;;;25.90;47.50;;;;;;4897466;29;20036;-93
2022/07/13 00:36:43;;;;;;;2.53;1.00;;;25.90;47.90;;;;;;4897444;29;20063;-93
2022/07/13 00:39:09;;;;;;;2.00;1.00;;;25.80;47.50;;;;;;4897428;29;20400;-93
2022/07/13 00:41:34;;;;;;;2.70;1.20;;;25.80;48.00;;;;;;4897399;29;20485;-93
2022/07/13 00:44:07;;;;;;;1.33;0.95;;;25.80;48.10;;;;;;4897433;29;20408;-93
2022/07/13 00:46:34;;;;;;;3.17;0.90;;;25.80;48.20;;;;;;4897524;29;20096;-93
2022/07/13 00:49:00;;;;;;;2.50;1.10;;;25.70;47.40;;;;;;4897515;29;20087;-93
2022/07/13 00:51:27;;;;;;;0.98;0.70;;;25.80;48.10;;;;;;4897402;29;20044;-93
2022/07/13 00:53:53;;;;;;;5.47;0.98;;;25.70;47.80;;;;;;4897285;29;20511;-93
2022/07/13 00:56:20;;;;;;;2.55;0.90;;;25.70;48.00;;;;;;4897656;29;20039;-93
2022/07/13 00:58:46;;;;;;;3.08;0.90;;;25.60;48.90;;;;;;4897231;29;20033;-93
2022/07/13 01:01:12;;;;;;;1.40;0.90;;;25.70;48.30;;;;;;4897530;29;20040;-94
2022/07/13 01:03:38;;;;;;;2.90;0.90;;;25.60;48.90;;;;;;4897298;29;20418;-93
2022/07/13 01:06:05;;;;;;;2.40;1.00;;;25.60;48.90;;;;;;4897334;29;20036;-94
2022/07/13 01:08:33;;;;;;;1.88;0.80;;;25.60;49.30;;;;;;4897362;29;20033;-93
2022/07/13 01:10:59;;;;;;;1.75;1.00;;;25.40;49.00;;;;;;4897254;29;20033;-93
2022/07/13 01:13:25;;;;;;;4.78;0.80;;;25.40;49.70;;;;;;4897305;29;20397;-93
2022/07/13 01:15:51;;;;;;;3.75;0.80;;;25.30;50.30;;;;;;4897334;29;20041;-93
2022/07/13 01:18:17;;;;;;;2.15;0.90;;;25.20;50.50;;;;;;4897151;29;20033;-93
2022/07/13 01:20:43;;;;;;;4.22;0.93;;;25.10;51.20;;;;;;4897307;29;20028;-93
2022/07/13 01:23:14;;;;;;;2.17;1.00;;;25.10;51.30;;;;;;4900795;29;20135;-93
2022/07/13 01:25:41;;;;;;;1.48;1.00;;;25.10;51.90;;;;;;4900465;29;20485;-93
2022/07/13 01:28:07;;;;;;;2.45;1.02;;;25.10;52.00;;;;;;4900603;29;20032;-93
2022/07/13 01:30:33;;;;;;;6.50;0.80;;;25.10;52.00;;;;;;4900801;29;20469;-92
2022/07/13 01:32:58;;;;;;;7.10;1.30;;;24.90;51.10;;;;;;4900320;29;20032;-93
2022/07/13 01:35:24;;;;;;;3.30;1.20;;;25.00;51.90;;;;;;4900484;29;20083;-93
2022/07/13 01:37:51;;;;;;;2.00;1.00;;;25.00;51.90;;;;;;4900435;29;20033;-92
2022/07/13 01:40:16;;;;;;;3.92;0.90;;;24.90;51.40;;;;;;4900208;29;20044;-93
2022/07/13 01:42:51;;;;;;;1.83;0.85;;;24.80;52.30;;;;;;4900808;29;20413;-93
2022/07/13 01:45:24;;;;;;;7.43;1.05;;;24.80;52.40;;;;;;4900488;29;20040;-93
2022/07/13 01:47:53;;;;;;;3.13;1.10;;;24.70;52.50;;;;;;4900323;29;20031;-93
2022/07/13 01:50:22;;;;;;;2.80;1.00;;;24.70;52.60;;;;;;4900224;29;20043;-93
2022/07/13 01:52:48;;;;;;;2.22;0.90;;;24.80;53.40;;;;;;4899596;29;20138;-92
2022/07/13 01:55:15;;;;;;;2.88;1.02;;;24.70;53.60;;;;;;4900077;29;20037;-92
2022/07/13 01:57:41;;;;;;;8.65;1.15;;;24.50;53.90;;;;;;4900034;29;20141;-92
2022/07/13 02:00:16;;;;;;;3.42;0.90;;;24.40;54.40;;;;;;4899784;29;20029;-92
2022/07/13 02:02:43;;;;;;;2.40;0.85;;;24.40;54.80;;;;;;4899887;29;20032;-92
2022/07/13 02:05:09;;;;;;;2.25;0.80;;;24.30;54.90;;;;;;4900208;29;20525;-93
2022/07/13 02:07:36;;;;;;;6.18;1.60;;;24.30;55.10;;;;;;4899899;29;20032;-92
2022/07/13 02:10:02;;;;;;;10.43;1.90;;;24.30;55.40;;;;;;4899692;29;20040;-93
2022/07/13 02:12:28;;;;;;;2.50;0.85;;;24.20;55.20;;;;;;4899690;29;20031;-92
2022/07/13 02:14:54;;;;;;;1.85;1.00;;;24.30;55.90;;;;;;4899447;29;20033;-92
2022/07/13 02:17:19;;;;;;;1.92;0.90;;;24.10;55.70;;;;;;4900645;29;20116;-93
2022/07/13 02:19:45;;;;;;;4.28;1.10;;;24.00;56.30;;;;;;4900439;29;20075;-92
2022/07/13 02:22:10;;;;;;;4.25;1.05;;;24.00;56.20;;;;;;4899091;29;20067;-93
2022/07/13 02:24:36;;;;;;;1.42;0.90;;;24.00;56.70;;;;;;4899060;29;20029;-92
2022/07/13 02:27:02;;;;;;;1.80;1.13;;;23.80;57.30;;;;;;4899232;29;20024;-92
2022/07/13 02:29:28;;;;;;;4.45;1.25;;;23.80;58.20;;;;;;4899365;29;20079;-92
2022/07/13 02:31:53;;;;;;;7.53;1.30;;;23.90;58.50;;;;;;4898868;29;20024;-92
2022/07/13 02:34:19;;;;;;;3.03;1.40;;;23.90;58.30;;;;;;4898313;29;20028;-92
2022/07/13 02:36:45;;;;;;;2.53;1.02;;;23.90;58.80;;;;;;4898858;29;20027;-92
2022/07/13 02:39:10;;;;;;;3.00;1.40;;;23.70;59.20;;;;;;4900149;29;20051;-92
2022/07/13 02:41:36;;;;;;;2.10;1.00;;;23.70;59.00;;;;;;4898637;29;20544;-92
2022/07/13 02:44:02;;;;;;;2.17;0.85;;;23.70;58.70;;;;;;4899331;29;20088;-93
2022/07/13 02:46:27;;;;;;;4.30;1.20;;;23.70;59.40;;;;;;4899641;29;20025;-93
2022/07/13 02:48:53;;;;;;;3.15;1.30;;;23.70;60.20;;;;;;4899651;29;20029;-93
2022/07/13 02:51:19;;;;;;;3.45;1.20;;;23.70;60.10;;;;;;4898898;29;20068;-93
2022/07/13 02:53:44;;;;;;;6.45;1.30;;;23.60;60.70;;;;;;4898605;29;20104;-93
2022/07/13 02:56:10;;;;;;;4.80;1.27;;;23.50;60.60;;;;;;4899101;29;20024;-93
2022/07/13 02:58:36;;;;;;;1.85;1.05;;;23.50;60.60;;;;;;4899279;29;20064;-92
2022/07/13 03:01:01;;;;;;;1.80;1.20;;;23.40;61.00;;;;;;4900061;29;20032;-92
2022/07/13 03:03:27;;;;;;;2.40;1.17;;;23.30;61.80;;;;;;4898923;29;20060;-92
2022/07/13 03:05:53;;;;;;;1.90;0.90;;;23.20;62.00;;;;;;4898756;29;20397;-92
2022/07/13 03:08:18;;;;;;;10.38;1.40;;;23.30;62.30;;;;;;4898311;29;20028;-92
2022/07/13 03:10:45;;;;;;;3.15;1.08;;;23.40;62.20;;;;;;4898545;29;20446;-92
2022/07/13 03:13:11;;;;;;;15.60;1.10;;;23.30;62.50;;;;;;4898314;29;20088;-92
2022/07/13 03:15:36;;;;;;;6.22;0.95;;;23.20;62.60;;;;;;4898429;29;20025;-92
2022/07/13 03:18:03;;;;;;;6.07;1.20;;;23.30;63.00;;;;;;4898052;29;20481;-92
2022/07/13 03:20:28;;;;;;;7.38;1.63;;;23.20;62.40;;;;;;4898395;29;20076;-92
2022/07/13 03:22:54;;;;;;;2.38;1.00;;;23.10;62.80;;;;;;4898305;29;20056;-92
2022/07/13 03:25:20;;;;;;;1.83;1.00;;;23.00;61.80;;;;;;4898114;29;20397;-91
2022/07/13 03:27:45;;;;;;;4.03;1.15;;;23.00;62.20;;;;;;4898126;29;20032;-92
2022/07/13 03:30:11;;;;;;;3.10;0.98;;;23.00;63.30;;;;;;4898119;29;20032;-92
2022/07/13 03:32:37;;;;;;;4.53;0.90;;;22.90;63.20;;;;;;4898153;29;20047;-91
2022/07/13 03:35:02;;;;;;;1.70;0.88;;;23.00;63.80;;;;;;4898292;29;20132;-92
2022/07/13 03:37:28;;;;;;;1.77;1.10;;;23.10;63.20;;;;;;4898342;29;20072;-92
2022/07/13 03:39:54;;;;;;;1.83;1.00;;;23.00;62.50;;;;;;4898105;29;20100;-92
2022/07/13 03:42:20;;;;;;;4.57;0.80;;;23.00;63.20;;;;;;4898722;29;20029;-93
2022/07/13 03:44:45;;;;;;;4.50;1.75;;;23.00;63.40;;;;;;4898255;29;20029;-93
2022/07/13 03:47:11;;;;;;;2.58;0.93;;;22.80;63.80;;;;;;4898384;29;20028;-92
2022/07/13 03:49:37;;;;;;;3.67;0.80;;;22.40;64.90;;;;;;4898033;29;20024;-92
2022/07/13 03:52:02;;;;;;;0.90;0.80;;;22.20;66.00;;;;;;4898184;29;20081;-92
2022/07/13 03:54:28;;;;;;;2.53;1.02;;;22.10;65.70;;;;;;4898024;29;20053;-92
2022/07/13 03:56:54;;;;;;;2.15;1.00;;;22.20;66.20;;;;;;4897786;29;20040;-92
2022/07/13 03:59:20;;;;;;;1.42;0.82;;;22.20;66.00;;;;;;4897916;29;20029;-92
2022/07/13 04:01:45;;;;;;;3.75;1.27;;;22.40;65.30;;;;;;4897969;29;20449;-93
2022/07/13 04:04:11;;;;;;;1.70;1.00;;;22.40;65.40;;;;;;4898312;29;20045;-91
2022/07/13 04:06:37;;;;;;;4.88;1.00;;;22.40;66.10;;;;;;4897604;29;20040;-91
2022/07/13 04:09:03;;;;;;;5.13;1.00;;;22.40;65.50;;;;;;4897431;29;20025;-91
2022/07/13 04:11:29;;;;;;;2.45;1.00;;;22.40;65.10;;;;;;4897100;29;20036;-92
2022/07/13 04:13:54;;;;;;;2.95;1.00;;;22.50;64.90;;;;;;4898794;29;20036;-93
2022/07/13 04:16:20;;;;;;;3.17;1.10;;;22.40;64.90;;;;;;4896829;29;20115;-93
2022/07/13 04:18:46;;;;;;;3.88;1.20;;;22.40;65.10;;;;;;4896643;29;20047;-89
2022/07/13 04:21:13;;;;;;;4.50;1.17;;;22.30;65.10;;;;;;4896133;29;20076;-89
2022/07/13 04:23:40;;;;;;;2.75;1.50;;;22.20;66.20;;;;;;4896695;29;20025;-89
2022/07/13 04:26:06;;;;;;;1.60;0.90;;;22.30;65.90;;;;;;4896524;29;20037;-89
2022/07/13 04:28:31;;;;;;;1.88;0.95;;;22.20;66.10;;;;;;4896496;29;20508;-89
2022/07/13 04:30:57;;;;;;;4.30;1.52;;;22.20;65.90;;;;;;4897782;29;20041;-91
2022/07/13 04:33:23;;;;;;;3.65;0.98;;;22.20;65.70;;;;;;4896240;29;20036;-92
2022/07/13 04:35:49;;;;;;;2.10;1.13;;;22.00;65.70;;;;;;4896788;29;20033;-92
2022/07/13 04:38:15;;;;;;;3.63;1.10;;;21.70;66.70;;;;;;4896457;29;20032;-92
2022/07/13 04:40:41;;;;;;;2.75;1.30;;;21.60;67.20;;;;;;4897322;29;20131;-93
2022/07/13 04:43:07;;;;;;;2.63;0.90;;;21.60;67.60;;;;;;4896003;29;20059;-93
2022/07/13 04:45:32;;;;;;;9.77;1.40;;;21.70;68.10;;;;;;4896543;29;20028;-93
2022/07/13 04:48:01;;;;;;;2.53;1.33;;;21.70;67.90;;;;;;4896186;29;20021;-92
2022/07/13 04:50:27;;;;;;;4.53;1.23;;;21.50;68.40;;;;;;4896364;29;20060;-93
2022/07/13 04:52:52;;;;;;;5.70;1.08;;;21.60;68.20;;;;;;4896346;29;20103;-84
2022/07/13 04:55:18;;;;;;;6.70;1.10;;;21.70;68.00;;;;;;4896509;29;20036;-82
2022/07/13 04:57:44;;;;;;;2.63;1.20;;;21.80;68.00;;;;;;4902916;29;20017;-82
2022/07/13 05:00:11;;;;;;;3.33;1.00;;;21.80;68.50;;;;;;4903329;29;20087;-87
2022/07/13 05:02:38;;;;;;;5.15;1.38;;;21.80;68.60;;;;;;4903009;29;20024;-84
2022/07/13 05:05:05;;;;;;;2.30;1.00;;;21.80;69.20;;;;;;4902942;29;20127;-81
2022/07/13 05:07:31;;;;;;;3.38;1.30;;;21.90;69.60;;;;;;4902708;29;20033;-80
2022/07/13 05:09:57;;;;;;;6.30;1.30;;;21.90;69.90;;;;;;4901778;29;20397;-80
2022/07/13 05:12:22;;;;;;;3.83;1.05;;;21.80;70.00;;;;;;4901135;29;20035;-80
2022/07/13 05:14:48;;;;;;;3.25;1.23;;;21.70;70.60;;;;;;4902943;29;20404;-80
2022/07/13 05:17:14;;;;;;;6.55;1.23;;;21.70;70.70;;;;;;4902500;29;20020;-79
2022/07/13 05:19:39;;;;;;;2.90;1.50;;;21.80;71.20;;;;;;4902729;29;20623;-80
2022/07/13 05:22:05;;;;;;;2.53;1.05;;;21.90;71.70;;;;;;4902558;29;20556;-81
2022/07/13 05:24:31;;;;;;;4.75;1.20;;;22.00;69.80;;;;;;4901197;29;20496;-81
2022/07/13 05:26:56;;;;;;;6.00;1.10;;;22.00;70.60;;;;;;4903408;29;20020;-81
2022/07/13 05:29:22;;;;;;;2.75;1.00;;;22.00;71.00;;;;;;4902844;29;20433;-81
2022/07/13 05:31:48;;;;;;;3.22;1.17;;;21.90;70.10;;;;;;4902840;29;20043;-83
2022/07/13 05:34:14;;;;;;;1.77;1.10;;;21.90;70.80;;;;;;4902818;29;20112;-81
2022/07/13 05:36:40;;;;;;;2.72;1.02;;;22.00;70.30;;;;;;4902591;29;20116;-84
2022/07/13 05:39:05;;;;;;;1.63;0.90;;;22.10;71.10;;;;;;4902025;29;20036;-83
2022/07/13 05:41:32;;;;;;;9.50;1.35;;;22.20;70.80;;;;;;4902818;29;20104;-87
2022/07/13 05:43:59;;;;;;;4.07;1.05;;;22.20;71.30;;;;;;4901856;29;20040;-92
2022/07/13 05:46:25;;;;;;;2.13;1.00;;;22.20;71.40;;;;;;4902625;29;20056;-85
2022/07/13 05:48:51;;;;;;;4.80;1.23;;;22.30;71.30;;;;;;4901630;29;20036;-80
2022/07/13 05:51:16;;;;;;;5.70;1.23;;;22.40;71.30;;;;;;4901221;29;20414;-83
2022/07/13 05:53:42;;;;;;;2.35;1.08;;;22.40;71.80;;;;;;4902782;29;20082;-84
2022/07/13 05:56:09;;;;;;;3.45;1.00;;;22.50;71.50;;;;;;4903217;29;20462;-84
2022/07/13 05:58:35;;;;;;;6.78;1.40;;;22.60;71.00;;;;;;4902666;29;20055;-81
2022/07/13 06:01:00;;;;;;;4.88;1.13;;;22.60;71.50;;;;;;4902873;29;20782;-84
2022/07/13 06:03:26;;;;;;;1.38;1.00;;;22.70;71.10;;;;;;4902405;29;20043;-80
2022/07/13 06:05:52;;;;;;;3.28;1.08;;;22.70;70.90;;;;;;4901437;29;20145;-81
2022/07/13 06:08:18;;;;;;;9.18;1.67;;;22.80;71.50;;;;;;4898740;29;20622;-84
2022/07/13 06:10:43;;;;;;;4.68;1.30;;;22.90;70.90;;;;;;4898536;29;20024;-85
2022/07/13 06:13:09;;;;;;;2.60;1.20;;;23.00;72.60;;;;;;4912567;29;20048;-88
2022/07/13 06:15:34;;;;;;;4.75;1.10;;;23.10;70.40;;;;;;4898758;29;20025;-86
2022/07/13 06:18:00;;;;;;;2.47;1.20;;;23.20;70.80;;;;;;4898268;29;20035;-87
2022/07/13 06:20:26;;;;;;;3.22;1.38;;;23.30;70.90;;;;;;4899819;29;20033;-87
2022/07/13 06:23:09;;;;;;;4.25;1.40;;;23.40;70.50;;;;;;4900238;29;20063;-86
2022/07/13 06:25:40;;;;;;;2.58;1.27;;;23.30;70.80;;;;;;4900040;29;20025;-84
2022/07/13 06:28:06;;;;;;;2.15;1.20;;;23.40;70.40;;;;;;4900119;29;20040;-83
2022/07/13 06:30:35;;;;;;;3.13;1.23;;;23.40;69.90;;;;;;4899872;29;20537;-87
2022/07/13 06:33:01;;;;;;;5.82;1.73;;;23.60;68.90;;;;;;4900102;29;20028;-86
2022/07/13 06:35:28;;;;;;;6.05;1.35;;;23.70;69.90;;;;;;4899551;29;20051;-88
2022/07/13 06:37:53;;;;;;;4.82;1.60;;;23.80;69.50;;;;;;4900201;29;20107;-89
2022/07/13 06:40:19;;;;;;;3.97;1.40;;;23.90;69.60;;;;;;4899718;29;20113;-89
2022/07/13 06:42:45;;;;;;;5.82;1.30;;;23.90;68.90;;;;;;4898552;29;20036;-88
2022/07/13 06:45:11;;;;;;;4.75;1.75;;;24.00;70.40;;;;;;4899817;29;20021;-90
2022/07/13 06:47:38;;;;;;;2.80;1.60;;;24.00;70.60;;;;;;4898436;29;20028;-87
2022/07/13 06:50:06;;;;;;;4.00;1.40;;;24.10;70.50;;;;;;4899954;29;20024;-85
2022/07/13 06:52:32;;;;;;;4.28;1.00;;;24.20;67.30;;;;;;4898572;29;20509;-84
2022/07/13 06:54:57;;;;;;;3.50;1.65;;;24.30;64.60;;;;;;4898810;29;20103;-88
2022/07/13 06:57:23;;;;;;;2.65;1.25;;;24.40;64.00;;;;;;4897902;29;20103;-88
2022/07/13 06:59:49;;;;;;;2.45;1.10;;;24.50;64.90;;;;;;4896049;29;20088;-88
2022/07/13 07:02:14;;;;;;;3.42;1.17;;;24.60;64.30;;;;;;4896263;29;20033;-85
2022/07/13 07:04:40;;;;;;;2.55;0.90;;;24.60;63.00;;;;;;4893745;29;20119;-83
2022/07/13 07:07:06;;;;;;;8.73;1.60;;;24.70;61.80;;;;;;4897481;29;20107;-87
2022/07/13 07:09:32;;;;;;;8.13;2.13;;;24.70;66.20;;;;;;4895926;29;20044;-90
2022/07/13 07:11:58;;;;;;;7.32;1.88;;;24.70;65.50;;;;;;4897764;29;20020;-88
2022/07/13 07:14:24;;;;;;;3.78;1.30;;;24.80;66.00;;;;;;4897486;29;20374;-87
2022/07/13 07:16:49;;;;;;;7.38;1.75;;;24.80;66.30;;;;;;4898390;29;20037;-87
2022/07/13 07:19:15;;;;;;;9.48;1.25;;;24.80;66.10;;;;;;4898196;29;20035;-85
2022/07/13 07:21:40;;;;;;;8.30;1.58;;;24.90;66.50;;;;;;4897533;29;20043;-82
2022/07/13 07:24:06;;;;;;;5.22;1.38;;;24.90;65.90;;;;;;4896994;29;20028;-81
2022/07/13 07:26:32;;;;;;;8.35;1.63;;;24.90;65.40;;;;;;4896836;29;20039;-82
2022/07/13 07:28:58;;;;;;;8.00;1.80;;;24.90;66.20;;;;;;4896840;29;20119;-82
2022/07/13 07:31:25;;;;;;;6.05;1.30;;;24.90;66.10;;;;;;4896928;29;20036;-86
2022/07/13 07:33:51;;;;;;;11.07;1.70;;;25.00;66.30;;;;;;4897028;29;20183;-84
2022/07/13 07:36:17;;;;;;;7.03;1.70;;;25.10;67.80;;;;;;4896604;29;20400;-86
2022/07/13 07:38:45;;;;;;;11.13;1.80;;;25.20;67.90;;;;;;4896465;29;20040;-86
2022/07/13 07:41:11;;;;;;;8.07;1.67;;;25.20;66.50;;;;;;4895102;29;20040;-85
2022/07/13 07:43:37;;;;;;;5.70;1.75;;;25.30;66.10;;;;;;4896491;29;20027;-86
2022/07/13 07:46:03;;;;;;;9.68;1.75;;;25.40;66.10;;;;;;4896953;29;20061;-88
2022/07/13 09:54:14;;;;;;;1.45;0.90;;;33.10;43.50;;;;;;4896708;29;20147;-85
2022/07/13 09:56:47;;;;;;;4.13;1.30;;;33.20;43.40;;;;;;4900677;29;20033;-84
2022/07/13 09:59:13;;;;;;;4.20;1.30;;;33.20;43.40;;;;;;4900157;29;20572;-85
2022/07/13 10:01:39;;;;;;;3.33;1.23;;;33.50;44.90;;;;;;4900839;29;20031;-85
2022/07/13 10:04:08;;;;;;;2.83;1.13;;;33.40;43.20;;;;;;4900039;29;20115;-86
2022/07/13 10:06:34;;;;;;;1.83;0.90;;;33.40;43.30;;;;;;4899651;29;20035;-91
2022/07/13 10:09:01;;;;;;;6.32;1.05;;;33.60;42.80;;;;;;4889047;29;20036;-80
2022/07/13 10:11:27;;;;;;;2.38;1.00;;;33.50;43.80;;;;;;4900651;29;20067;-79
2022/07/13 10:13:53;;;;;;;1.60;1.20;;;33.50;44.10;;;;;;4900505;29;20029;-79
2022/07/13 10:16:20;;;;;;;3.40;1.00;;;33.60;43.90;;;;;;4900114;29;20061;-80
2022/07/13 10:18:47;;;;;;;1.55;1.00;;;33.60;44.30;;;;;;4900525;29;20159;-79
2022/07/13 10:21:26;;;;;;;6.22;1.30;;;33.90;43.40;;;;;;4895333;29;20060;-85
2022/07/13 10:23:52;;;;;;;2.55;1.30;;;33.80;43.00;;;;;;4880156;29;20393;-87
2022/07/13 10:26:24;;;;;;;4.65;1.20;;;33.50;42.50;;;;;;4880255;29;20124;-88
2022/07/13 10:29:09;;;;;;;2.45;1.17;;;33.60;43.30;;;;;;4880558;29;20021;-86
2022/07/13 10:31:36;;;;;;;1.73;1.17;;;33.70;43.50;;;;;;4881373;29;20052;-81
2022/07/13 10:34:03;;;;;;;3.67;1.10;;;33.90;43.60;;;;;;4895991;29;20029;-84
2022/07/13 10:36:47;;;;;;;5.22;1.10;;;34.10;43.20;;;;;;4900106;29;20028;-88
2022/07/13 10:39:14;;;;;;;1.50;1.00;;;34.40;42.40;;;;;;4900033;29;20511;-82
2022/07/13 10:42:07;;;;;;;5.30;1.10;;;34.40;41.80;;;;;;4897989;29;20067;-83
2022/07/13 10:44:42;;;;;;;2.88;1.10;;;34.30;41.80;;;;;;4899435;29;20048;-84
2022/07/13 10:47:11;;;;;;;7.25;1.23;;;34.10;41.20;;;;;;4899771;29;20029;-84
2022/07/13 10:49:49;;;;;;;2.08;1.30;;;34.10;42.20;;;;;;4899737;29;20070;-76
2022/07/13 10:52:19;;;;;;;6.00;1.00;;;34.70;41.40;;;;;;4899238;29;20055;-87
2022/07/13 10:55:03;;;;;;;1.48;1.00;;;34.70;40.40;;;;;;4897393;29;20059;-86
2022/07/13 10:57:34;;;;;;;6.78;1.10;;;35.00;40.60;;;;;;4898002;29;20064;-86
2022/07/13 11:00:01;;;;;;;3.87;1.20;;;35.40;40.30;;;;;;4899409;29;20032;-86
2022/07/13 11:02:48;;;;;;;3.55;1.20;;;35.60;40.50;;;;;;4899496;29;20025;-86
2022/07/13 11:05:18;;;;;;;6.63;1.30;;;35.20;39.90;;;;;;4887253;29;20394;-86
2022/07/13 11:07:46;;;;;;;3.30;1.00;;;35.10;39.90;;;;;;4880800;29;20021;-86
2022/07/13 11:10:25;;;;;;;3.40;1.30;;;34.70;39.70;;;;;;4884145;29;20047;-85
2022/07/13 11:13:02;;;;;;;5.03;1.13;;;35.00;40.10;;;;;;4898082;29;20123;-86
2022/07/13 11:15:48;;;;;;;1.75;1.15;;;35.20;40.10;;;;;;4899359;29;20036;-86
2022/07/13 11:18:22;;;;;;;5.15;1.20;;;35.20;39.60;;;;;;4898726;29;20040;-86
2022/07/13 11:20:55;;;;;;;3.75;1.30;;;35.30;40.00;;;;;;4899207;29;20111;-86
2022/07/13 11:26:28;;;;;;;1.77;1.25;;;35.70;40.20;;;;;;4898879;29;20112;-86
2022/07/13 11:29:22;;;;;;;3.80;1.10;;;35.90;39.20;;;;;;4899235;29;20024;-86
2022/07/13 11:32:01;;;;;;;2.92;1.35;;;35.60;38.60;;;;;;4880373;29;20033;-85
2022/07/13 11:34:27;;;;;;;4.32;1.27;;;35.80;39.20;;;;;;4880349;29;20087;-86
2022/07/13 11:36:55;;;;;;;2.25;1.27;;;36.20;38.90;;;;;;4878825;29;20120;-86
2022/07/13 11:39:26;;;;;;;4.03;1.45;;;36.20;39.00;;;;;;4879630;29;20049;-86
2022/07/13 11:41:53;;;;;;;3.83;1.40;;;35.90;39.10;;;;;;4880369;29;20108;-86
2022/07/13 11:44:29;;;;;;;3.42;1.50;;;35.50;39.20;;;;;;4878582;29;20029;-86
2022/07/13 11:47:03;;;;;;;4.60;1.92;;;35.40;38.50;;;;;;4880262;29;20021;-86
2022/07/13 11:49:55;;;;;;;4.57;1.67;;;35.60;37.50;;;;;;4878648;29;20021;-86
2022/07/13 11:52:24;;;;;;;;;;;35.80;38.10;;;;;;4895081;29;20075;-85
2022/07/13 11:54:56;;;;;;;6.13;1.70;;;35.60;38.60;;;;;;4891401;29;19915;-86
2022/07/13 11:57:22;;;;;;;2.75;1.70;;;35.80;38.20;;;;;;4880128;29;20040;-86
2022/07/13 11:59:47;;;;;;;4.90;1.88;;;35.90;37.20;;;;;;4879939;29;20033;-86
2022/07/13 12:02:14;;;;;;;2.10;1.60;;;36.20;37.40;;;;;;4878518;29;20505;-85
2022/07/13 12:04:46;;;;;;;5.35;1.45;;;35.70;36.60;;;;;;4880140;29;20029;-81
2022/07/13 12:07:17;;;;;;;3.53;1.70;;;35.80;37.60;;;;;;4878872;29;20021;-81
2022/07/13 12:09:54;;;;;;;3.75;1.65;;;35.60;37.70;;;;;;4881744;29;20590;-81
2022/07/13 12:12:22;;;;;;;5.63;2.25;;;35.80;37.70;;;;;;4879422;29;20032;-80
2022/07/13 12:14:50;;;;;;;4.45;2.33;;;36.10;37.10;;;;;;4896368;29;20040;-82
2022/07/13 12:17:17;;;;;;;5.40;3.50;;;36.40;36.30;;;;;;4898046;29;20109;-82
2022/07/13 12:19:42;;;;;;;4.25;3.25;;;36.70;34.20;;;;;;4898187;29;20407;-81
2022/07/13 12:22:08;;;;;;;4.80;3.42;;;36.80;34.60;;;;;;4897571;29;20020;-82
2022/07/13 12:24:35;;;;;;;10.13;3.35;;;36.40;33.30;;;;;;4898127;29;20028;-80
2022/07/13 12:27:02;;;;;;;6.63;2.97;;;36.60;33.60;;;;;;4897966;29;20457;-80
2022/07/13 12:29:29;;;;;;;5.93;3.00;;;36.20;34.60;;;;;;4898296;29;20025;-79
2022/07/13 12:31:55;;;;;;;5.20;3.03;;;36.40;33.60;;;;;;4898135;29;20060;-80
2022/07/13 12:34:21;;;;;;;6.50;3.20;;;36.50;33.80;;;;;;4897763;29;20531;-80
2022/07/13 12:36:50;;;;;;;4.18;3.38;;;36.90;33.50;;;;;;4897224;29;20401;-80
2022/07/13 12:39:20;;;;;;;7.68;4.78;;;37.10;32.50;;;;;;4887979;29;20049;-80
2022/07/13 12:41:56;;;;;;;6.95;4.25;;;36.60;30.60;;;;;;4879314;29;20037;-79
2022/07/13 12:44:31;;;;;;;8.13;4.60;;;36.60;31.70;;;;;;4879239;29;20481;-79
2022/07/13 12:46:59;;;;;;;6.70;3.88;;;36.50;31.50;;;;;;4879168;29;20025;-80
2022/07/13 12:49:35;;;;;;;6.13;4.00;;;36.70;31.10;;;;;;4894180;29;20017;-82
2022/07/13 12:52:08;;;;;;;3.72;3.10;;;36.50;30.60;;;;;;4894848;29;20064;-80
2022/07/13 12:54:40;;;;;;;3.60;3.08;;;36.90;32.80;;;;;;4896141;29;20028;-80
2022/07/13 12:57:11;;;;;;;5.00;3.13;;;36.60;31.00;;;;;;4897512;29;20396;-80
2022/07/13 12:59:37;;;;;;;4.72;3.42;;;36.80;32.20;;;;;;4897907;29;20072;-80
2022/07/13 13:02:02;;;;;;;6.70;2.72;;;37.10;32.50;;;;;;4897877;29;20116;-79
2022/07/13 13:04:29;;;;;;;3.75;2.80;;;36.20;33.40;;;;;;4897520;29;20561;-80
2022/07/13 13:06:55;;;;;;;5.68;3.15;;;36.90;33.80;;;;;;4897642;29;20060;-80
2022/07/13 13:09:22;;;;;;;3.33;2.90;;;36.80;33.90;;;;;;4897794;29;20024;-80
2022/07/13 13:11:49;;;;;;;6.72;2.97;;;37.10;33.30;;;;;;4897820;29;20051;-80
2022/07/13 13:14:17;;;;;;;3.55;3.05;;;37.00;31.20;;;;;;4897498;29;20035;-80
2022/07/13 13:16:43;;;;;;;6.30;2.75;;;36.30;32.70;;;;;;4897804;29;20036;-80
2022/07/13 13:19:10;;;;;;;3.15;2.70;;;36.10;32.40;;;;;;4901247;29;20056;-80
2022/07/13 13:21:37;;;;;;;4.53;2.97;;;35.90;32.30;;;;;;4900964;29;20486;-80
2022/07/13 13:24:08;;;;;;;5.80;2.85;;;36.20;33.00;;;;;;4901097;29;20056;-80
2022/07/13 13:26:35;;;;;;;6.00;2.47;;;36.40;33.10;;;;;;4901836;29;20021;-80
2022/07/13 13:31:45;;;;;;;3.78;2.72;;;36.70;32.00;;;;;;4900844;29;20087;-80
2022/07/13 13:34:13;;;;;;;3.97;2.85;;;36.70;31.80;;;;;;4901423;29;20502;-79
2022/07/13 13:36:39;;;;;;;4.35;3.10;;;37.20;31.50;;;;;;4900409;29;20134;-79
2022/07/13 13:39:05;;;;;;;5.57;2.88;;;36.70;31.40;;;;;;4901040;29;20032;-80
2022/07/13 13:41:31;;;;;;;8.80;2.95;;;36.40;31.80;;;;;;4899704;29;20079;-79
2022/07/13 13:43:56;;;;;;;3.63;2.65;;;36.70;30.90;;;;;;4893590;29;20400;-80
2022/07/13 13:46:22;;;;;;;5.45;2.55;;;36.50;31.70;;;;;;4882880;29;20033;-80
2022/07/13 13:48:48;;;;;;;4.20;2.92;;;36.50;31.10;;;;;;4901143;29;20028;-80
2022/07/13 13:51:13;;;;;;;3.47;2.75;;;36.60;31.60;;;;;;4900556;29;20033;-80
2022/07/13 13:53:40;;;;;;;4.07;2.63;;;36.60;29.80;;;;;;4891063;29;20079;-79
2022/07/13 13:56:06;;;;;;;7.93;2.95;;;36.40;30.30;;;;;;4886309;29;20025;-80
2022/07/13 13:58:32;;;;;;;4.28;2.80;;;36.70;30.90;;;;;;4882178;29;20021;-80
2022/07/13 14:00:57;;;;;;;4.18;2.50;;;36.70;30.40;;;;;;4882183;29;20039;-80
2022/07/13 14:03:23;;;;;;;10.73;2.90;;;36.50;29.90;;;;;;4881968;29;20064;-80
2022/07/13 14:05:49;;;;;;;8.30;2.78;;;36.50;29.60;;;;;;4881669;29;20057;-80
2022/07/13 14:08:14;;;;;;;3.72;2.78;;;36.10;30.40;;;;;;4881777;29;20018;-79
2022/07/13 14:10:42;;;;;;;6.10;2.70;;;36.00;29.50;;;;;;4881730;29;20061;-80
2022/07/13 14:13:07;;;;;;;8.13;2.83;;;36.30;29.90;;;;;;4882019;29;20029;-80
2022/07/13 14:15:34;;;;;;;7.30;2.92;;;36.30;29.40;;;;;;4889098;29;20040;-80
2022/07/13 14:18:00;;;;;;;3.55;2.65;;;36.30;29.70;;;;;;4900261;29;20065;-80
2022/07/13 14:20:26;;;;;;;3.83;2.53;;;36.30;29.30;;;;;;4900166;29;20057;-80
2022/07/13 14:22:52;;;;;;;3.50;2.40;;;36.20;29.10;;;;;;4900338;29;20032;-80
2022/07/13 14:25:19;;;;;;;4.00;2.50;;;36.10;28.90;;;;;;4900466;29;20025;-80
2022/07/13 14:27:45;;;;;;;6.72;2.95;;;36.40;29.00;;;;;;4900080;29;20016;-80
2022/07/13 14:30:11;;;;;;;3.08;2.50;;;36.30;30.80;;;;;;4898667;29;20132;-80
2022/07/13 14:32:37;;;;;;;4.47;2.60;;;35.80;30.20;;;;;;4899765;29;20075;-80
2022/07/13 14:35:05;;;;;;;7.80;3.05;;;36.00;30.50;;;;;;4900322;29;20111;-80
2022/07/13 14:37:30;;;;;;;4.93;2.30;;;36.10;30.80;;;;;;4900196;29;20048;-80
2022/07/13 14:39:56;;;;;;;4.55;2.55;;;36.10;30.70;;;;;;4900278;29;20068;-80
2022/07/13 14:42:22;;;;;;;3.38;2.67;;;36.40;29.60;;;;;;4899851;29;20104;-80
2022/07/13 14:44:47;;;;;;;5.90;2.38;;;36.50;29.60;;;;;;4899939;29;20172;-80
2022/07/13 14:47:13;;;;;;;9.57;3.17;;;36.50;29.40;;;;;;4899941;29;20031;-80
2022/07/13 14:49:38;;;;;;;4.72;2.65;;;36.20;29.90;;;;;;4899817;29;20060;-80
2022/07/13 14:52:04;;;;;;;11.30;2.83;;;36.10;30.10;;;;;;4885113;29;20085;-80
2022/07/13 14:54:30;;;;;;;5.20;3.03;;;36.40;30.70;;;;;;4888510;29;20037;-79
2022/07/13 14:56:56;;;;;;;7.80;2.60;;;36.50;30.00;;;;;;4894923;29;20081;-79
2022/07/13 14:59:25;;;;;;;5.70;2.45;;;36.30;29.40;;;;;;4888204;29;20037;-80